createdAt,value
2018-08-28T00:01:51.183Z,13.60
2018-08-28T00:04:19.638Z,13.60
2018-08-28T00:06:48.223Z,13.60
2018-08-28T00:09:16.690Z,13.70
2018-08-28T00:11:45.146Z,13.70
2018-08-28T00:14:13.711Z,13.60
2018-08-28T00:16:42.153Z,13.60
2018-08-28T00:19:10.590Z,13.60
2018-08-28T00:21:39.118Z,13.60
2018-08-28T00:24:07.568Z,13.60
2018-08-28T00:26:36.027Z,13.60
2018-08-28T00:29:04.522Z,13.60
2018-08-28T00:31:33.064Z,13.50
2018-08-28T00:34:01.529Z,13.50
2018-08-28T00:36:30.006Z,13.50
2018-08-28T00:38:58.478Z,13.60
2018-08-28T00:41:26.958Z,13.60
2018-08-28T00:43:55.439Z,13.60
2018-08-28T00:46:23.942Z,13.60
2018-08-28T00:48:52.458Z,13.60
2018-08-28T00:51:20.926Z,13.60
2018-08-28T00:53:49.410Z,13.60
2018-08-28T00:56:17.894Z,13.50
2018-08-28T00:58:46.469Z,13.50
2018-08-28T01:01:14.978Z,13.50
2018-08-28T01:03:43.484Z,13.50
2018-08-28T01:06:11.998Z,13.40
2018-08-28T01:08:40.559Z,13.40
2018-08-28T01:11:09.470Z,13.30
2018-08-28T01:13:37.927Z,13.30
2018-08-28T01:16:06.439Z,13.30
2018-08-28T01:18:34.882Z,13.30
2018-08-28T01:21:03.341Z,13.30
2018-08-28T01:23:31.836Z,13.20
2018-08-28T01:26:00.338Z,13.20
2018-08-28T01:28:28.867Z,13.10
2018-08-28T01:30:57.379Z,13.10
2018-08-28T01:33:25.905Z,13.10
2018-08-28T01:35:54.514Z,13.10
2018-08-28T01:38:22.991Z,13.10
2018-08-28T01:40:51.494Z,13.10
2018-08-28T01:43:22.790Z,13.10
2018-08-28T01:45:51.757Z,13.00
2018-08-28T01:48:20.250Z,13.00
2018-08-28T01:50:48.776Z,13.10
2018-08-28T01:53:17.273Z,13.00
2018-08-28T01:55:45.757Z,13.10
2018-08-28T01:58:14.218Z,13.10
2018-08-28T02:00:42.751Z,13.10
2018-08-28T02:03:11.257Z,13.10
2018-08-28T02:05:39.746Z,13.10
2018-08-28T02:08:08.341Z,13.10
2018-08-28T02:10:36.859Z,13.10
2018-08-28T02:13:05.401Z,13.10
2018-08-28T02:15:33.966Z,13.10
2018-08-28T02:18:02.486Z,13.10
2018-08-28T02:20:30.950Z,13.10
2018-08-28T02:22:59.538Z,13.10
2018-08-28T02:25:28.031Z,13.10
2018-08-28T02:27:56.558Z,13.20
2018-08-28T02:30:25.106Z,13.10
2018-08-28T02:32:53.614Z,13.20
2018-08-28T02:35:22.090Z,13.20
2018-08-28T02:37:50.619Z,13.20
2018-08-28T02:40:19.166Z,13.20
2018-08-28T02:42:47.649Z,13.20
2018-08-28T02:45:16.226Z,13.10
2018-08-28T02:47:44.722Z,13.20
2018-08-28T02:50:13.218Z,13.10
2018-08-28T02:52:41.736Z,13.10
2018-08-28T02:55:10.314Z,13.10
2018-08-28T02:57:38.807Z,13.10
2018-08-28T03:00:07.361Z,13.10
2018-08-28T03:02:35.830Z,13.10
2018-08-28T03:05:04.499Z,13.00
2018-08-28T03:07:32.995Z,13.00
2018-08-28T03:10:01.599Z,13.00
2018-08-28T03:12:30.107Z,13.00
2018-08-28T03:14:58.619Z,13.00
2018-08-28T03:17:27.129Z,13.00
2018-08-28T03:19:55.597Z,12.90
2018-08-28T03:22:24.482Z,12.90
2018-08-28T03:24:53.018Z,12.90
2018-08-28T03:27:21.520Z,12.90
2018-08-28T03:29:50.052Z,12.80
2018-08-28T03:32:18.566Z,12.80
2018-08-28T03:34:47.141Z,12.90
2018-08-28T03:37:15.750Z,12.90
2018-08-28T03:39:44.210Z,12.90
2018-08-28T03:42:12.702Z,12.90
2018-08-28T03:44:41.212Z,12.90
2018-08-28T03:47:09.758Z,13.00
2018-08-28T03:49:38.302Z,13.00
2018-08-28T03:52:06.894Z,13.00
2018-08-28T03:54:35.434Z,13.00
2018-08-28T03:57:03.894Z,13.00
2018-08-28T03:59:32.438Z,13.00
2018-08-28T04:02:01.956Z,13.00
2018-08-28T04:04:30.446Z,13.00
2018-08-28T04:06:58.966Z,13.00
2018-08-28T04:09:27.446Z,13.10
2018-08-28T04:11:55.926Z,13.00
2018-08-28T04:14:24.450Z,13.00
2018-08-28T04:16:53.006Z,13.10
2018-08-28T04:19:21.531Z,13.10
2018-08-28T04:21:50.107Z,13.10
2018-08-28T04:24:18.631Z,13.10
2018-08-28T04:26:47.098Z,13.20
2018-08-28T04:29:15.754Z,13.20
2018-08-28T04:31:44.241Z,13.30
2018-08-28T04:34:12.684Z,13.40
2018-08-28T04:36:41.173Z,13.40
2018-08-28T04:39:09.674Z,13.50
2018-08-28T04:41:38.170Z,13.50
2018-08-28T04:44:06.698Z,13.60
2018-08-28T04:46:35.158Z,13.60
2018-08-28T04:49:03.633Z,13.60
2018-08-28T04:51:32.210Z,13.70
2018-08-28T04:54:00.686Z,13.70
2018-08-28T04:56:29.178Z,13.80
2018-08-28T04:58:57.681Z,13.90
2018-08-28T05:01:26.149Z,13.90
2018-08-28T05:03:54.666Z,14.00
2018-08-28T05:06:23.199Z,14.00
2018-08-28T05:08:51.678Z,14.10
2018-08-28T05:11:20.135Z,14.10
2018-08-28T05:13:48.730Z,14.20
2018-08-28T05:16:17.183Z,14.20
2018-08-28T05:18:45.709Z,14.30
2018-08-28T05:21:14.338Z,14.40
2018-08-28T05:23:42.847Z,14.40
2018-08-28T05:26:11.355Z,14.50
2018-08-28T05:28:39.914Z,14.50
2018-08-28T05:31:08.378Z,14.50
2018-08-28T05:33:36.875Z,14.50
2018-08-28T05:36:05.410Z,14.60
2018-08-28T05:38:33.899Z,14.60
2018-08-28T05:41:02.364Z,14.60
2018-08-28T05:43:30.910Z,14.70
2018-08-28T05:45:59.399Z,14.70
2018-08-28T05:48:27.874Z,14.80
2018-08-28T05:50:56.441Z,14.90
2018-08-28T05:53:24.930Z,14.90
2018-08-28T05:55:53.458Z,15.00
2018-08-28T05:58:21.874Z,15.00
2018-08-28T06:00:50.338Z,15.10
2018-08-28T06:03:18.932Z,15.10
2018-08-28T06:05:47.378Z,15.10
2018-08-28T06:08:15.870Z,15.10
2018-08-28T06:10:44.403Z,15.20
2018-08-28T06:13:12.934Z,15.20
2018-08-28T06:15:41.400Z,15.30
2018-08-28T06:18:10.140Z,15.30
2018-08-28T06:20:38.662Z,15.30
2018-08-28T06:23:07.187Z,15.30
2018-08-28T06:25:35.668Z,15.40
2018-08-28T06:28:04.222Z,15.40
2018-08-28T06:30:32.683Z,15.50
2018-08-28T06:33:01.145Z,15.50
2018-08-28T06:35:29.618Z,15.60
2018-08-28T06:37:58.075Z,15.60
2018-08-28T06:40:26.522Z,15.70
2018-08-28T06:42:55.076Z,15.80
2018-08-28T06:45:23.530Z,15.90
2018-08-28T06:47:51.992Z,15.90
2018-08-28T06:50:20.510Z,15.90
2018-08-28T06:52:48.938Z,16.00
2018-08-28T06:55:17.414Z,16.10
2018-08-28T06:57:45.910Z,16.10
2018-08-28T07:00:14.362Z,16.20
2018-08-28T07:02:42.809Z,16.30
2018-08-28T07:05:11.435Z,16.40
2018-08-28T07:07:40.014Z,16.50
2018-08-28T07:10:09.693Z,16.50
2018-08-28T07:12:38.184Z,16.60
2018-08-28T07:15:06.695Z,16.60
2018-08-28T07:17:35.139Z,16.70
2018-08-28T07:20:03.694Z,16.70
2018-08-28T07:22:32.178Z,16.80
2018-08-28T07:25:00.670Z,16.90
2018-08-28T07:27:29.186Z,16.90
2018-08-28T07:29:57.669Z,17.00
2018-08-28T07:32:26.142Z,17.00
2018-08-28T07:34:54.775Z,17.00
2018-08-28T07:37:23.315Z,17.10
2018-08-28T07:39:51.763Z,17.10
2018-08-28T07:42:20.322Z,17.10
2018-08-28T07:44:48.885Z,17.10
2018-08-28T07:47:17.344Z,17.10
2018-08-28T07:49:45.847Z,17.10
2018-08-28T07:52:14.390Z,17.20
2018-08-28T07:54:42.962Z,17.20
2018-08-28T07:57:11.442Z,17.20
2018-08-28T07:59:39.911Z,17.20
2018-08-28T08:02:08.449Z,17.20
2018-08-28T08:04:37.269Z,17.20
2018-08-28T08:07:06.090Z,17.20
2018-08-28T08:09:34.559Z,17.20
2018-08-28T08:12:03.093Z,17.30
2018-08-28T08:14:31.554Z,17.30
2018-08-28T08:17:00.114Z,17.40
2018-08-28T08:19:28.570Z,17.50
2018-08-28T08:21:57.068Z,17.60
2018-08-28T08:24:25.526Z,17.70
2018-08-28T08:26:54.040Z,17.70
2018-08-28T08:29:22.565Z,17.80
2018-08-28T08:31:51.032Z,17.90
2018-08-28T08:34:19.539Z,18.00
2018-08-28T08:36:48.018Z,18.10
2018-08-28T08:39:16.474Z,18.20
2018-08-28T08:41:44.977Z,18.30
2018-08-28T08:44:13.530Z,18.40
2018-08-28T08:46:41.967Z,18.40
2018-08-28T08:49:10.787Z,18.50
2018-08-28T08:51:39.254Z,18.60
2018-08-28T08:54:07.719Z,18.60
2018-08-28T08:56:36.194Z,18.50
2018-08-28T08:59:04.703Z,18.50
2018-08-28T09:01:33.166Z,18.50
2018-08-28T09:04:01.890Z,18.60
2018-08-28T09:06:30.467Z,18.60
2018-08-28T09:08:59.094Z,18.60
2018-08-28T09:11:27.732Z,18.60
2018-08-28T09:13:56.238Z,18.70
2018-08-28T09:16:24.897Z,18.70
2018-08-28T09:18:53.473Z,18.80
2018-08-28T09:21:21.942Z,18.90
2018-08-28T09:23:50.430Z,19.00
2018-08-28T09:26:19.039Z,19.00
2018-08-28T09:28:48.002Z,19.00
2018-08-28T09:31:18.670Z,19.10
2018-08-28T09:33:51.285Z,19.20
2018-08-28T09:36:22.949Z,19.30
2018-08-28T09:38:51.595Z,19.40
2018-08-28T09:44:33.393Z,19.30
2018-08-28T09:47:01.961Z,19.30
2018-08-28T09:49:30.495Z,19.30
2018-08-28T09:51:59.003Z,19.40
2018-08-28T09:54:27.550Z,19.50
2018-08-28T09:56:56.234Z,19.50
2018-08-28T09:59:24.708Z,19.50
2018-08-28T10:01:53.222Z,19.50
2018-08-28T10:04:22.010Z,19.50
2018-08-28T10:06:50.486Z,19.50
2018-08-28T10:09:19.290Z,19.50
2018-08-28T10:11:52.016Z,19.40
2018-08-28T10:14:20.510Z,19.40
2018-08-28T10:16:49.078Z,19.30
2018-08-28T10:19:17.582Z,19.30
2018-08-28T10:21:46.076Z,19.30
2018-08-28T10:24:14.533Z,19.40
2018-08-28T10:26:42.990Z,19.40
2018-08-28T10:29:13.708Z,19.50
2018-08-28T10:31:42.204Z,19.60
2018-08-28T10:34:10.664Z,19.60
2018-08-28T10:36:39.178Z,19.70
2018-08-28T10:39:09.105Z,19.70
2018-08-28T10:41:37.577Z,19.70
2018-08-28T10:44:06.099Z,19.70
2018-08-28T10:46:34.766Z,19.60
2018-08-28T10:49:03.226Z,19.70
2018-08-28T10:51:31.869Z,19.70
2018-08-28T10:54:00.482Z,19.70
2018-08-28T10:56:28.918Z,19.60
2018-08-28T10:58:57.446Z,19.60
2018-08-28T11:01:25.878Z,19.60
2018-08-28T11:03:54.304Z,19.60
2018-08-28T11:06:22.841Z,19.70
2018-08-28T11:08:51.361Z,19.70
2018-08-28T11:11:19.833Z,19.70
2018-08-28T11:13:48.335Z,19.60
2018-08-28T11:16:16.831Z,19.50
2018-08-28T11:18:45.566Z,19.40
2018-08-28T11:21:14.115Z,19.40
2018-08-28T11:23:42.578Z,19.40
2018-08-28T11:26:11.058Z,19.30
2018-08-28T11:28:39.580Z,19.30
2018-08-28T11:31:08.116Z,19.30
2018-08-28T11:33:36.567Z,19.40
2018-08-28T11:36:06.258Z,19.30
2018-08-28T11:38:34.789Z,19.20
2018-08-28T11:41:03.216Z,19.20
2018-08-28T11:43:31.740Z,19.10
2018-08-28T11:46:00.225Z,19.10
2018-08-28T11:48:28.727Z,19.00
2018-08-28T11:50:57.270Z,19.00
2018-08-28T11:53:25.738Z,18.90
2018-08-28T11:55:54.196Z,18.90
2018-08-28T11:58:22.747Z,18.90
2018-08-28T12:00:51.216Z,18.80
2018-08-28T12:03:19.716Z,18.90
2018-08-28T12:05:48.474Z,18.90
2018-08-28T12:08:16.966Z,19.00
2018-08-28T12:10:45.438Z,19.00
2018-08-28T12:13:14.036Z,19.20
2018-08-28T12:15:42.465Z,19.20
2018-08-28T12:18:11.025Z,19.30
2018-08-28T12:20:39.551Z,19.30
2018-08-28T12:23:08.008Z,19.30
2018-08-28T12:25:36.506Z,19.40
2018-08-28T12:28:05.266Z,19.40
2018-08-28T12:30:33.740Z,19.40
2018-08-28T12:33:02.268Z,19.50
2018-08-28T12:35:30.843Z,19.60
2018-08-28T12:37:59.299Z,19.60
2018-08-28T12:40:27.860Z,19.70
2018-08-28T12:42:56.336Z,19.80
2018-08-28T12:45:24.967Z,19.90
2018-08-28T12:47:53.865Z,19.90
2018-08-28T12:50:22.345Z,19.90
2018-08-28T12:52:50.818Z,19.90
2018-08-28T12:55:19.331Z,19.80
2018-08-28T12:57:47.796Z,19.70
2018-08-28T13:00:16.374Z,19.60
2018-08-28T13:02:44.987Z,19.40
2018-08-28T13:05:13.455Z,19.30
2018-08-28T13:07:41.918Z,19.20
2018-08-28T13:10:10.548Z,19.00
2018-08-28T13:12:39.020Z,18.90
2018-08-28T13:15:07.530Z,18.80
2018-08-28T13:17:36.064Z,18.80
2018-08-28T13:20:12.226Z,18.80
2018-08-28T13:22:40.855Z,18.70
2018-08-28T13:25:10.195Z,18.70
2018-08-28T13:27:38.603Z,18.70
2018-08-28T13:30:08.615Z,18.70
2018-08-28T13:32:37.416Z,18.80
2018-08-28T13:35:14.540Z,18.90
2018-08-28T13:37:43.150Z,19.00
2018-08-28T13:40:12.158Z,19.10
2018-08-28T13:42:40.709Z,19.30
2018-08-28T13:45:09.867Z,19.30
2018-08-28T13:47:38.332Z,19.40
2018-08-28T13:50:07.898Z,19.50
2018-08-28T13:52:36.330Z,19.60
2018-08-28T13:55:05.791Z,19.70
2018-08-28T13:57:34.298Z,19.80
2018-08-28T14:00:02.828Z,19.80
2018-08-28T14:02:31.381Z,19.90
2018-08-28T14:04:59.875Z,19.90
2018-08-28T14:07:28.367Z,19.90
2018-08-28T14:09:56.885Z,19.90
2018-08-28T14:12:25.410Z,20.00
2018-08-28T14:14:53.967Z,19.90
2018-08-28T14:17:22.408Z,20.00
2018-08-28T14:19:51.119Z,20.00
2018-08-28T14:22:19.623Z,20.00
2018-08-28T14:24:48.078Z,20.10
2018-08-28T14:27:16.670Z,20.10
2018-08-28T14:29:45.166Z,20.10
2018-08-28T14:32:13.842Z,20.10
2018-08-28T14:34:42.443Z,20.10
2018-08-28T14:37:10.909Z,20.00
2018-08-28T14:39:39.354Z,19.90
2018-08-28T14:42:08.015Z,19.90
2018-08-28T14:44:36.503Z,19.90
2018-08-28T14:47:05.134Z,19.90
2018-08-28T14:49:33.654Z,19.80
2018-08-28T14:52:02.179Z,19.80
2018-08-28T14:54:30.823Z,19.80
2018-08-28T14:56:59.343Z,19.70
2018-08-28T14:59:27.834Z,19.70
2018-08-28T15:01:56.312Z,19.70
2018-08-28T15:04:24.816Z,19.70
2018-08-28T15:06:53.320Z,19.80
2018-08-28T15:09:21.698Z,19.90
2018-08-28T15:11:50.218Z,20.00
2018-08-28T15:14:18.678Z,20.00
2018-08-28T15:16:47.361Z,20.10
2018-08-28T15:19:15.665Z,20.10
2018-08-28T15:21:45.070Z,20.10
2018-08-28T15:24:13.490Z,20.00
2018-08-28T15:26:42.009Z,20.10
2018-08-28T15:29:10.442Z,20.00
2018-08-28T15:31:38.930Z,20.00
2018-08-28T15:34:07.481Z,20.10
2018-08-28T15:36:35.927Z,20.10
2018-08-28T15:39:05.142Z,20.10
2018-08-28T15:41:33.663Z,20.10
2018-08-28T15:44:02.194Z,20.10
2018-08-28T15:46:30.711Z,20.10
2018-08-28T15:48:59.222Z,20.00
2018-08-28T15:51:27.974Z,20.10
2018-08-28T15:53:56.354Z,20.10
2018-08-28T15:56:25.138Z,20.10
2018-08-28T15:58:53.875Z,20.20
2018-08-28T16:01:22.360Z,20.20
2018-08-28T16:03:50.914Z,20.10
2018-08-28T16:06:19.459Z,20.00
2018-08-28T16:08:48.087Z,20.00
2018-08-28T16:11:16.598Z,19.90
2018-08-28T16:13:45.076Z,19.80
2018-08-28T16:16:13.544Z,19.70
2018-08-28T16:18:42.047Z,19.60
2018-08-28T16:21:10.534Z,19.50
2018-08-28T16:23:42.349Z,19.50
2018-08-28T16:26:10.830Z,19.30
2018-08-28T16:28:39.337Z,19.20
2018-08-28T16:31:07.853Z,19.20
2018-08-28T16:33:36.510Z,19.10
2018-08-28T16:36:05.079Z,19.00
2018-08-28T16:38:33.639Z,18.90
2018-08-28T16:41:02.290Z,18.90
2018-08-28T16:43:30.722Z,18.80
2018-08-28T16:45:59.230Z,18.80
2018-08-28T16:48:27.768Z,18.70
2018-08-28T16:50:56.238Z,18.60
2018-08-28T16:53:24.735Z,18.60
2018-08-28T16:55:53.280Z,18.60
2018-08-28T16:58:21.680Z,18.50
2018-08-28T17:00:50.152Z,18.50
2018-08-28T17:03:18.690Z,18.50
2018-08-28T17:05:47.154Z,18.40
2018-08-28T17:08:15.639Z,18.40
2018-08-28T17:10:44.442Z,18.40
2018-08-28T17:13:12.891Z,18.30
2018-08-28T17:15:41.338Z,18.30
2018-08-28T17:18:09.877Z,18.30
2018-08-28T17:20:38.337Z,18.20
2018-08-28T17:23:06.803Z,18.20
2018-08-28T17:25:35.357Z,18.20
2018-08-28T17:28:03.931Z,18.20
2018-08-28T17:30:32.392Z,18.10
2018-08-28T17:33:00.879Z,18.10
2018-08-28T17:35:29.327Z,18.10
2018-08-28T17:37:57.782Z,18.10
2018-08-28T17:40:26.278Z,18.10
2018-08-28T17:42:54.730Z,18.00
2018-08-28T17:45:23.166Z,18.00
2018-08-28T17:47:51.795Z,18.00
2018-08-28T17:50:20.259Z,18.00
2018-08-28T17:52:48.737Z,17.90
2018-08-28T17:55:17.224Z,17.90
2018-08-28T17:57:45.722Z,17.80
2018-08-28T18:00:14.219Z,17.80
2018-08-28T18:02:42.725Z,17.80
2018-08-28T18:05:11.230Z,17.80
2018-08-28T18:07:39.710Z,17.80
2018-08-28T18:10:08.219Z,17.70
2018-08-28T18:12:36.704Z,17.70
2018-08-28T18:15:05.524Z,17.70
2018-08-28T18:17:34.068Z,17.60
2018-08-28T18:20:02.572Z,17.60
2018-08-28T18:22:31.118Z,17.60
2018-08-28T18:24:59.966Z,17.50
2018-08-28T18:27:28.470Z,17.50
2018-08-28T18:29:57.018Z,17.40
2018-08-28T18:32:25.750Z,17.40
2018-08-28T18:34:54.206Z,17.40
2018-08-28T18:37:24.079Z,17.30
2018-08-28T18:39:52.588Z,17.30
2018-08-28T18:42:21.572Z,17.30
2018-08-28T18:44:50.006Z,17.30
2018-08-28T18:47:18.554Z,17.30
2018-08-28T18:49:47.039Z,17.30
2018-08-28T18:52:15.566Z,17.20
2018-08-28T18:54:44.071Z,17.20
2018-08-28T18:57:12.590Z,17.20
2018-08-28T18:59:41.262Z,17.20
2018-08-28T19:02:09.802Z,17.20
2018-08-28T19:04:38.388Z,17.20
2018-08-28T19:07:06.912Z,17.10
2018-08-28T19:09:37.751Z,17.10
2018-08-28T19:12:06.252Z,17.10
2018-08-28T19:14:34.853Z,17.10
2018-08-28T19:17:03.350Z,17.10
2018-08-28T19:19:31.850Z,17.10
2018-08-28T19:22:00.317Z,17.00
2018-08-28T19:24:28.875Z,17.00
2018-08-28T19:26:57.423Z,17.00
2018-08-28T19:29:25.933Z,17.00
2018-08-28T19:31:54.564Z,17.00
2018-08-28T19:34:22.930Z,17.00
2018-08-28T19:36:51.399Z,17.00
2018-08-28T19:39:29.315Z,17.00
2018-08-28T19:42:04.787Z,17.00
2018-08-28T19:44:46.323Z,17.00
2018-08-28T19:47:22.699Z,17.00
2018-08-28T19:49:55.019Z,17.00
2018-08-28T19:52:23.381Z,17.00
2018-08-28T19:54:51.831Z,17.00
2018-08-28T19:57:20.410Z,17.00
2018-08-28T19:59:48.866Z,17.00
2018-08-28T20:02:17.301Z,16.90
2018-08-28T20:04:45.789Z,16.90
2018-08-28T20:07:14.330Z,16.90
2018-08-28T20:09:42.830Z,16.90
2018-08-28T20:12:11.338Z,16.90
2018-08-28T20:14:40.666Z,16.90
2018-08-28T20:17:09.109Z,16.90
2018-08-28T20:19:37.630Z,16.80
2018-08-28T20:22:08.990Z,16.80
2018-08-28T20:24:37.435Z,16.80
2018-08-28T20:27:06.339Z,16.80
2018-08-28T20:29:34.810Z,16.70
2018-08-28T20:32:03.299Z,16.70
2018-08-28T20:34:31.721Z,16.70
2018-08-28T20:37:00.126Z,16.70
2018-08-28T20:39:28.575Z,16.70
2018-08-28T20:42:00.619Z,16.70
2018-08-28T20:44:29.370Z,16.70
2018-08-28T20:46:57.928Z,16.70
2018-08-28T20:49:26.433Z,16.70
2018-08-28T20:51:54.966Z,16.70
2018-08-28T20:54:23.478Z,16.70
2018-08-28T20:56:52.117Z,16.70
2018-08-28T20:59:20.762Z,16.60
2018-08-28T21:01:49.219Z,16.60
2018-08-28T21:04:17.690Z,16.60
2018-08-28T21:06:46.175Z,16.60
2018-08-28T21:09:14.665Z,16.60
2018-08-28T21:11:43.547Z,16.60
2018-08-28T21:14:12.071Z,16.60
2018-08-28T21:16:40.534Z,16.60
2018-08-28T21:19:09.162Z,16.60
2018-08-28T21:21:37.669Z,16.60
2018-08-28T21:24:06.451Z,16.60
2018-08-28T21:26:34.937Z,16.60
2018-08-28T21:29:05.470Z,16.60
2018-08-28T21:31:33.887Z,16.60
2018-08-28T21:34:02.438Z,16.60
2018-08-28T21:36:30.954Z,16.60
2018-08-28T21:38:59.474Z,16.60
2018-08-28T21:41:28.070Z,16.60
2018-08-28T21:43:56.546Z,16.60
2018-08-28T21:46:25.422Z,16.60
2018-08-28T21:48:54.591Z,16.50
2018-08-28T21:51:23.045Z,16.60
2018-08-28T21:53:51.518Z,16.50
2018-08-28T21:56:20.042Z,16.50
2018-08-28T21:58:48.520Z,16.60
2018-08-28T22:01:17.027Z,16.60
2018-08-28T22:03:45.608Z,16.60
2018-08-28T22:06:19.454Z,16.60
2018-08-28T22:08:48.203Z,16.60
2018-08-28T22:11:16.890Z,16.60
2018-08-28T22:13:45.655Z,16.60
2018-08-28T22:16:14.298Z,16.60
2018-08-28T22:18:42.778Z,16.50
2018-08-28T22:21:15.038Z,16.60
2018-08-28T22:23:43.527Z,16.50
2018-08-28T22:26:12.282Z,16.50
2018-08-28T22:28:40.811Z,16.50
2018-08-28T22:31:09.311Z,16.50
2018-08-28T22:33:37.902Z,16.50
2018-08-28T22:36:07.906Z,16.50
2018-08-28T22:38:37.149Z,16.50
2018-08-28T22:41:05.731Z,16.50
2018-08-28T22:43:34.210Z,16.50
2018-08-28T22:46:02.921Z,16.40
2018-08-28T22:48:31.354Z,16.50
2018-08-28T22:50:59.865Z,16.50
2018-08-28T22:53:28.493Z,16.50
2018-08-28T22:55:56.947Z,16.50
2018-08-28T22:58:25.638Z,16.40
2018-08-28T23:00:54.091Z,16.40
2018-08-28T23:03:22.518Z,16.40
2018-08-28T23:05:51.052Z,16.40
2018-08-28T23:08:19.481Z,16.40
2018-08-28T23:10:48.343Z,16.40
2018-08-28T23:13:16.909Z,16.40
2018-08-28T23:15:45.994Z,16.40
2018-08-28T23:18:14.434Z,16.40
2018-08-28T23:20:42.950Z,16.40
2018-08-28T23:23:11.406Z,16.40
2018-08-28T23:25:39.861Z,16.40
2018-08-28T23:28:08.378Z,16.40
2018-08-28T23:30:36.878Z,16.40
2018-08-28T23:33:05.398Z,16.40
2018-08-28T23:35:33.913Z,16.40
2018-08-28T23:38:02.390Z,16.40
2018-08-28T23:40:30.838Z,16.30
2018-08-28T23:42:59.489Z,16.30
2018-08-28T23:45:27.926Z,16.30
2018-08-28T23:47:56.422Z,16.30
2018-08-28T23:50:25.008Z,16.30
2018-08-28T23:52:53.546Z,16.30
2018-08-28T23:55:21.994Z,16.30
2018-08-28T23:57:50.582Z,16.30
